Airfield :







YOU CAN JOIN US ON...

 
LOGIN :

Register | Disclaimer

   EN    FR    IT 

 









Legend :    VFR   Marginal VFR   IFR   Intensive IFR   Very Intensive IFR
Visi :
Ceiling :
>= 8 km
>= 3000ft
5 to 8 km
1000 to 3000 ft
1500m to 5 km
500 to 1000 ft
800 to 1500m
200 to 500 ft
< 800m
< 200 ft
Symbols :   Thunderstorms  Fog  Heavy snow  Heavy precipitations  Wind > 20 kt







- Airport Elevation : 1808 ft
- IATA code : YWK


CYWK - Wabush

CURRENT METAR :
  • 150704Z AUTO 20008KT 9SM SCT006 BKN016 OVC070 09/08 A2967 RMK SLP063

EXPIRED METARs :
  • 150654Z AUTO 21008KT 7SM BKN006 OVC016 09/08 A2967 RMK SLP063
  • 150646Z AUTO 20008KT 6SM -RA BR OVC006 09/08 A2967 RMK SLP063
  • 150621Z AUTO 21008KT 5SM -RA BR OVC008 09/08 A2967 RMK SLP064
  • 150600Z AUTO 19007KT 7SM -RA OVC008 08/08 A2967 RMK PCPN 1.0MM PAST HR SLP065
  • 150530Z AUTO 19006KT 6SM -RA BR BKN008 08/08 A2967 RMK SLP066
  • 150527Z AUTO 19007KT 5SM -RA BR OVC008 08/07 A2967 RMK SLP066
  • 150500Z AUTO 19007KT 9SM -RA OVC008 08/07 A2968 RMK SLP069
  • 150432Z AUTO 19006KT 6SM -RA BR OVC008 08/07 A2968 RMK SLP070

TAF TAF CYWK
Valid from the 15 at 02:00 until the 15 at 14:00 UTC


150139Z 1502/1514 19007KT P6SM -RA OVC010
TEMPO 1502/1512 3SM -RA BR OVC005
BECMG 1505/1507 24010G20KT
FM151200 26012KT 3SM -RA BR OVC005
TEMPO 1512/1514 6SM -RA BR OVC010 RMK NXT FCST BY 150800Z
No reported NOTAMs for that airfield.



MET'MAP, your aeronautical weather chart ! - Copyright ORBIFLY December 2007 - Disclaimer

ORBIFLY MET'MAP TEAM :

Programming & Development : Alexandra Zaïnal
Concept & Development : Baudouin d'Aumeries
Co-Development & Prog : Marc-Olivier Méhu
Technical & hardware support : Manuel Goepfert

Contact : metmap@orbifly.com




SOURCES & CREDITS :

   NOAA